sensor_id;sensor_type;location;lat;lon;timestamp;P1;durP1;ratioP1;P2;durP2;ratioP2
51495;SDS011;37572;52.094;4.870;2023-03-14T00:01:48;9.03;;;1.80;;
51495;SDS011;37572;52.094;4.870;2023-03-14T00:04:15;8.80;;;2.42;;
51495;SDS011;37572;52.094;4.870;2023-03-14T00:06:40;8.17;;;1.83;;
51495;SDS011;37572;52.094;4.870;2023-03-14T00:09:05;12.53;;;1.90;;
51495;SDS011;37572;52.094;4.870;2023-03-14T00:11:30;9.32;;;2.08;;
51495;SDS011;37572;52.094;4.870;2023-03-14T00:13:56;10.30;;;2.27;;
51495;SDS011;37572;52.094;4.870;2023-03-14T00:16:21;8.43;;;1.80;;
51495;SDS011;37572;52.094;4.870;2023-03-14T00:18:46;11.37;;;2.00;;
51495;SDS011;37572;52.094;4.870;2023-03-14T00:21:11;8.60;;;2.03;;
51495;SDS011;37572;52.094;4.870;2023-03-14T00:23:37;10.20;;;2.47;;
51495;SDS011;37572;52.094;4.870;2023-03-14T00:26:07;9.18;;;3.13;;
51495;SDS011;37572;52.094;4.870;2023-03-14T00:28:33;10.43;;;2.72;;
51495;SDS011;37572;52.094;4.870;2023-03-14T00:30:58;8.52;;;2.92;;
51495;SDS011;37572;52.094;4.870;2023-03-14T00:33:24;10.17;;;2.57;;
51495;SDS011;37572;52.094;4.870;2023-03-14T00:35:56;9.82;;;2.03;;
51495;SDS011;37572;52.094;4.870;2023-03-14T00:38:21;8.35;;;1.77;;
51495;SDS011;37572;52.094;4.870;2023-03-14T00:40:47;8.82;;;2.25;;
51495;SDS011;37572;52.094;4.870;2023-03-14T00:43:12;5.70;;;1.63;;
51495;SDS011;37572;52.094;4.870;2023-03-14T00:45:37;8.10;;;1.90;;
51495;SDS011;37572;52.094;4.870;2023-03-14T00:48:02;7.83;;;1.60;;
51495;SDS011;37572;52.094;4.870;2023-03-14T00:50:27;6.80;;;1.80;;
51495;SDS011;37572;52.094;4.870;2023-03-14T00:52:53;6.57;;;2.37;;
51495;SDS011;37572;52.094;4.870;2023-03-14T00:55:18;9.33;;;2.67;;
51495;SDS011;37572;52.094;4.870;2023-03-14T00:57:43;11.83;;;3.20;;
51495;SDS011;37572;52.094;4.870;2023-03-14T01:00:08;6.53;;;2.30;;
51495;SDS011;37572;52.094;4.870;2023-03-14T01:02:36;9.70;;;3.15;;
51495;SDS011;37572;52.094;4.870;2023-03-14T01:05:01;6.53;;;2.33;;
51495;SDS011;37572;52.094;4.870;2023-03-14T01:07:27;8.20;;;2.60;;
51495;SDS011;37572;52.094;4.870;2023-03-14T01:09:52;10.17;;;2.60;;
51495;SDS011;37572;52.094;4.870;2023-03-14T01:12:17;11.10;;;2.70;;
51495;SDS011;37572;52.094;4.870;2023-03-14T01:14:42;13.30;;;2.43;;
51495;SDS011;37572;52.094;4.870;2023-03-14T01:17:08;11.17;;;2.47;;
51495;SDS011;37572;52.094;4.870;2023-03-14T01:19:33;9.17;;;2.40;;
51495;SDS011;37572;52.094;4.870;2023-03-14T01:21:58;11.17;;;2.70;;
51495;SDS011;37572;52.094;4.870;2023-03-14T01:24:23;6.27;;;2.03;;
51495;SDS011;37572;52.094;4.870;2023-03-14T01:26:48;7.33;;;2.40;;
51495;SDS011;37572;52.094;4.870;2023-03-14T01:29:14;10.57;;;2.40;;
51495;SDS011;37572;52.094;4.870;2023-03-14T01:31:39;8.00;;;1.83;;
51495;SDS011;37572;52.094;4.870;2023-03-14T01:34:04;17.97;;;4.13;;
51495;SDS011;37572;52.094;4.870;2023-03-14T01:36:29;6.80;;;1.97;;
51495;SDS011;37572;52.094;4.870;2023-03-14T01:38:54;7.07;;;2.07;;
51495;SDS011;37572;52.094;4.870;2023-03-14T01:41:21;7.83;;;2.73;;
51495;SDS011;37572;52.094;4.870;2023-03-14T01:43:46;7.50;;;1.60;;
51495;SDS011;37572;52.094;4.870;2023-03-14T01:46:17;4.23;;;1.40;;
51495;SDS011;37572;52.094;4.870;2023-03-14T01:48:45;7.25;;;2.00;;
51495;SDS011;37572;52.094;4.870;2023-03-14T01:51:13;9.18;;;1.80;;
51495;SDS011;37572;52.094;4.870;2023-03-14T01:53:40;8.35;;;2.72;;
51495;SDS011;37572;52.094;4.870;2023-03-14T01:56:07;8.60;;;2.35;;
51495;SDS011;37572;52.094;4.870;2023-03-14T01:58:34;8.43;;;2.85;;
51495;SDS011;37572;52.094;4.870;2023-03-14T02:00:59;9.17;;;2.50;;
51495;SDS011;37572;52.094;4.870;2023-03-14T02:03:26;8.73;;;2.33;;
51495;SDS011;37572;52.094;4.870;2023-03-14T02:05:51;9.70;;;2.47;;
51495;SDS011;37572;52.094;4.870;2023-03-14T02:08:19;6.95;;;1.40;;
51495;SDS011;37572;52.094;4.870;2023-03-14T02:10:45;9.77;;;2.22;;
51495;SDS011;37572;52.094;4.870;2023-03-14T02:13:12;8.20;;;3.00;;
51495;SDS011;37572;52.094;4.870;2023-03-14T02:15:38;9.70;;;1.40;;
51495;SDS011;37572;52.094;4.870;2023-03-14T02:18:04;6.85;;;1.30;;
51495;SDS011;37572;52.094;4.870;2023-03-14T02:20:39;5.53;;;1.45;;
51495;SDS011;37572;52.094;4.870;2023-03-14T02:23:10;6.90;;;1.60;;
51495;SDS011;37572;52.094;4.870;2023-03-14T02:25:38;6.73;;;1.40;;
51495;SDS011;37572;52.094;4.870;2023-03-14T02:28:06;5.38;;;1.23;;
51495;SDS011;37572;52.094;4.870;2023-03-14T02:30:32;9.33;;;1.77;;
51495;SDS011;37572;52.094;4.870;2023-03-14T02:32:58;9.30;;;2.45;;
51495;SDS011;37572;52.094;4.870;2023-03-14T02:35:26;5.57;;;1.70;;
51495;SDS011;37572;52.094;4.870;2023-03-14T02:37:53;8.48;;;2.88;;
51495;SDS011;37572;52.094;4.870;2023-03-14T02:40:20;4.43;;;1.20;;
51495;SDS011;37572;52.094;4.870;2023-03-14T02:42:45;7.33;;;2.50;;
51495;SDS011;37572;52.094;4.870;2023-03-14T02:47:57;5.53;;;1.50;;
51495;SDS011;37572;52.094;4.870;2023-03-14T02:50:22;7.97;;;1.50;;
51495;SDS011;37572;52.094;4.870;2023-03-14T02:52:49;6.57;;;2.10;;
51495;SDS011;37572;52.094;4.870;2023-03-14T02:55:14;8.67;;;1.73;;
51495;SDS011;37572;52.094;4.870;2023-03-14T02:57:39;7.80;;;1.60;;
51495;SDS011;37572;52.094;4.870;2023-03-14T03:00:04;10.83;;;2.77;;
51495;SDS011;37572;52.094;4.870;2023-03-14T03:02:30;4.32;;;1.55;;
51495;SDS011;37572;52.094;4.870;2023-03-14T03:04:55;6.35;;;1.60;;
51495;SDS011;37572;52.094;4.870;2023-03-14T03:07:20;7.30;;;2.03;;
51495;SDS011;37572;52.094;4.870;2023-03-14T03:09:46;9.13;;;1.73;;
51495;SDS011;37572;52.094;4.870;2023-03-14T03:12:11;8.53;;;2.40;;
51495;SDS011;37572;52.094;4.870;2023-03-14T03:14:36;9.10;;;2.50;;
51495;SDS011;37572;52.094;4.870;2023-03-14T03:17:02;7.85;;;1.83;;
51495;SDS011;37572;52.094;4.870;2023-03-14T03:19:27;7.22;;;1.80;;
51495;SDS011;37572;52.094;4.870;2023-03-14T03:21:53;11.23;;;2.20;;
51495;SDS011;37572;52.094;4.870;2023-03-14T03:24:18;6.40;;;2.60;;
51495;SDS011;37572;52.094;4.870;2023-03-14T03:26:43;11.73;;;1.53;;
51495;SDS011;37572;52.094;4.870;2023-03-14T03:29:08;7.47;;;2.13;;
51495;SDS011;37572;52.094;4.870;2023-03-14T03:31:36;7.60;;;2.00;;
51495;SDS011;37572;52.094;4.870;2023-03-14T03:34:01;8.50;;;2.05;;
51495;SDS011;37572;52.094;4.870;2023-03-14T03:36:26;7.63;;;1.63;;
51495;SDS011;37572;52.094;4.870;2023-03-14T03:38:51;9.50;;;2.23;;
51495;SDS011;37572;52.094;4.870;2023-03-14T03:41:16;11.02;;;1.90;;
51495;SDS011;37572;52.094;4.870;2023-03-14T03:43:42;6.40;;;1.60;;
51495;SDS011;37572;52.094;4.870;2023-03-14T03:46:07;10.67;;;2.50;;
51495;SDS011;37572;52.094;4.870;2023-03-14T03:48:33;6.70;;;1.95;;
51495;SDS011;37572;52.094;4.870;2023-03-14T03:50:58;8.57;;;1.92;;
51495;SDS011;37572;52.094;4.870;2023-03-14T03:53:23;10.63;;;3.93;;
51495;SDS011;37572;52.094;4.870;2023-03-14T03:55:48;10.53;;;1.60;;
51495;SDS011;37572;52.094;4.870;2023-03-14T03:58:14;10.27;;;2.10;;
51495;SDS011;37572;52.094;4.870;2023-03-14T04:00:39;10.57;;;1.50;;
51495;SDS011;37572;52.094;4.870;2023-03-14T04:03:04;7.87;;;2.40;;
51495;SDS011;37572;52.094;4.870;2023-03-14T04:05:29;6.83;;;1.77;;
51495;SDS011;37572;52.094;4.870;2023-03-14T04:07:54;7.87;;;1.73;;
51495;SDS011;37572;52.094;4.870;2023-03-14T04:10:20;9.02;;;1.40;;
51495;SDS011;37572;52.094;4.870;2023-03-14T04:12:45;7.72;;;1.77;;
51495;SDS011;37572;52.094;4.870;2023-03-14T04:15:10;8.03;;;1.97;;
51495;SDS011;37572;52.094;4.870;2023-03-14T04:17:36;7.67;;;2.80;;
51495;SDS011;37572;52.094;4.870;2023-03-14T04:20:01;5.87;;;1.80;;
51495;SDS011;37572;52.094;4.870;2023-03-14T04:22:26;7.23;;;1.53;;
51495;SDS011;37572;52.094;4.870;2023-03-14T04:24:51;7.67;;;2.80;;
51495;SDS011;37572;52.094;4.870;2023-03-14T04:27:17;6.90;;;1.70;;
51495;SDS011;37572;52.094;4.870;2023-03-14T04:29:42;7.33;;;2.43;;
51495;SDS011;37572;52.094;4.870;2023-03-14T04:32:07;9.25;;;2.20;;
51495;SDS011;37572;52.094;4.870;2023-03-14T04:34:33;7.53;;;1.80;;
51495;SDS011;37572;52.094;4.870;2023-03-14T04:36:58;9.20;;;2.27;;
51495;SDS011;37572;52.094;4.870;2023-03-14T04:39:23;6.50;;;1.63;;
51495;SDS011;37572;52.094;4.870;2023-03-14T04:41:48;8.07;;;1.90;;
51495;SDS011;37572;52.094;4.870;2023-03-14T04:44:13;8.03;;;1.73;;
51495;SDS011;37572;52.094;4.870;2023-03-14T04:46:38;9.13;;;1.87;;
51495;SDS011;37572;52.094;4.870;2023-03-14T04:49:04;9.50;;;2.47;;
51495;SDS011;37572;52.094;4.870;2023-03-14T04:51:29;10.87;;;2.50;;
51495;SDS011;37572;52.094;4.870;2023-03-14T04:53:54;7.33;;;1.87;;
51495;SDS011;37572;52.094;4.870;2023-03-14T04:56:19;7.10;;;2.27;;
51495;SDS011;37572;52.094;4.870;2023-03-14T04:58:44;5.47;;;1.70;;
51495;SDS011;37572;52.094;4.870;2023-03-14T05:01:10;11.50;;;1.70;;
51495;SDS011;37572;52.094;4.870;2023-03-14T05:03:35;6.73;;;1.97;;
51495;SDS011;37572;52.094;4.870;2023-03-14T05:06:02;9.27;;;2.80;;
51495;SDS011;37572;52.094;4.870;2023-03-14T05:08:27;6.27;;;1.90;;
51495;SDS011;37572;52.094;4.870;2023-03-14T05:10:53;8.77;;;2.00;;
51495;SDS011;37572;52.094;4.870;2023-03-14T05:13:18;6.35;;;1.88;;
51495;SDS011;37572;52.094;4.870;2023-03-14T05:15:43;8.30;;;1.77;;
51495;SDS011;37572;52.094;4.870;2023-03-14T05:18:09;8.97;;;2.10;;
51495;SDS011;37572;52.094;4.870;2023-03-14T05:20:34;6.90;;;1.97;;
51495;SDS011;37572;52.094;4.870;2023-03-14T05:23:00;6.57;;;1.42;;
51495;SDS011;37572;52.094;4.870;2023-03-14T05:25:25;9.23;;;2.07;;
51495;SDS011;37572;52.094;4.870;2023-03-14T05:27:52;10.77;;;2.17;;
51495;SDS011;37572;52.094;4.870;2023-03-14T05:30:18;8.60;;;1.95;;
51495;SDS011;37572;52.094;4.870;2023-03-14T05:32:43;7.57;;;2.20;;
51495;SDS011;37572;52.094;4.870;2023-03-14T05:35:08;6.90;;;2.10;;
51495;SDS011;37572;52.094;4.870;2023-03-14T05:37:33;8.50;;;3.10;;
51495;SDS011;37572;52.094;4.870;2023-03-14T05:39:59;6.32;;;2.47;;
51495;SDS011;37572;52.094;4.870;2023-03-14T05:42:24;8.37;;;2.30;;
51495;SDS011;37572;52.094;4.870;2023-03-14T05:44:49;5.57;;;2.33;;
51495;SDS011;37572;52.094;4.870;2023-03-14T05:47:15;6.00;;;1.90;;
51495;SDS011;37572;52.094;4.870;2023-03-14T05:49:40;5.93;;;2.07;;
51495;SDS011;37572;52.094;4.870;2023-03-14T05:52:05;9.80;;;4.77;;
51495;SDS011;37572;52.094;4.870;2023-03-14T05:54:30;7.13;;;2.53;;
51495;SDS011;37572;52.094;4.870;2023-03-14T05:56:55;6.40;;;3.83;;
51495;SDS011;37572;52.094;4.870;2023-03-14T05:59:20;5.60;;;3.37;;
51495;SDS011;37572;52.094;4.870;2023-03-14T06:01:46;5.20;;;1.17;;
51495;SDS011;37572;52.094;4.870;2023-03-14T06:04:11;3.97;;;0.97;;
51495;SDS011;37572;52.094;4.870;2023-03-14T06:06:36;4.50;;;0.93;;
51495;SDS011;37572;52.094;4.870;2023-03-14T06:09:02;4.10;;;1.00;;
51495;SDS011;37572;52.094;4.870;2023-03-14T06:11:27;3.78;;;0.90;;
51495;SDS011;37572;52.094;4.870;2023-03-14T06:13:52;5.33;;;1.30;;
51495;SDS011;37572;52.094;4.870;2023-03-14T06:16:17;4.77;;;1.10;;
51495;SDS011;37572;52.094;4.870;2023-03-14T06:18:42;4.03;;;1.13;;
51495;SDS011;37572;52.094;4.870;2023-03-14T06:21:08;2.40;;;1.00;;
51495;SDS011;37572;52.094;4.870;2023-03-14T06:23:33;3.60;;;0.80;;
51495;SDS011;37572;52.094;4.870;2023-03-14T06:25:58;5.13;;;0.90;;
51495;SDS011;37572;52.094;4.870;2023-03-14T06:28:24;4.03;;;1.35;;
51495;SDS011;37572;52.094;4.870;2023-03-14T06:30:49;4.00;;;0.83;;
51495;SDS011;37572;52.094;4.870;2023-03-14T06:33:14;4.80;;;0.97;;
51495;SDS011;37572;52.094;4.870;2023-03-14T06:35:39;4.37;;;1.20;;
51495;SDS011;37572;52.094;4.870;2023-03-14T06:38:04;3.40;;;1.10;;
51495;SDS011;37572;52.094;4.870;2023-03-14T06:40:30;4.00;;;1.30;;
51495;SDS011;37572;52.094;4.870;2023-03-14T06:42:55;4.40;;;1.10;;
51495;SDS011;37572;52.094;4.870;2023-03-14T06:45:20;2.63;;;1.20;;
51495;SDS011;37572;52.094;4.870;2023-03-14T06:47:45;6.97;;;1.47;;
51495;SDS011;37572;52.094;4.870;2023-03-14T06:50:10;5.57;;;1.63;;
51495;SDS011;37572;52.094;4.870;2023-03-14T06:52:36;4.97;;;1.37;;
51495;SDS011;37572;52.094;4.870;2023-03-14T06:55:01;5.40;;;1.30;;
51495;SDS011;37572;52.094;4.870;2023-03-14T06:57:27;6.97;;;1.67;;
51495;SDS011;37572;52.094;4.870;2023-03-14T06:59:52;3.63;;;1.27;;
51495;SDS011;37572;52.094;4.870;2023-03-14T07:02:17;3.33;;;1.10;;
51495;SDS011;37572;52.094;4.870;2023-03-14T07:04:42;6.00;;;0.87;;
51495;SDS011;37572;52.094;4.870;2023-03-14T07:07:08;2.27;;;0.70;;
51495;SDS011;37572;52.094;4.870;2023-03-14T07:09:33;3.07;;;1.23;;
51495;SDS011;37572;52.094;4.870;2023-03-14T07:11:58;4.38;;;1.10;;
51495;SDS011;37572;52.094;4.870;2023-03-14T07:14:24;5.97;;;1.20;;
51495;SDS011;37572;52.094;4.870;2023-03-14T07:16:49;4.90;;;1.43;;
51495;SDS011;37572;52.094;4.870;2023-03-14T07:19:14;5.93;;;1.30;;
51495;SDS011;37572;52.094;4.870;2023-03-14T07:21:39;4.10;;;0.90;;
51495;SDS011;37572;52.094;4.870;2023-03-14T07:24:05;4.03;;;1.20;;
51495;SDS011;37572;52.094;4.870;2023-03-14T07:26:30;3.17;;;0.55;;
51495;SDS011;37572;52.094;4.870;2023-03-14T07:28:55;2.40;;;0.67;;
51495;SDS011;37572;52.094;4.870;2023-03-14T07:31:21;5.13;;;1.23;;
51495;SDS011;37572;52.094;4.870;2023-03-14T07:33:46;2.00;;;0.60;;
51495;SDS011;37572;52.094;4.870;2023-03-14T07:36:11;3.03;;;0.60;;
51495;SDS011;37572;52.094;4.870;2023-03-14T07:38:37;2.53;;;0.77;;
51495;SDS011;37572;52.094;4.870;2023-03-14T07:41:03;3.47;;;0.87;;
51495;SDS011;37572;52.094;4.870;2023-03-14T07:43:29;3.67;;;1.00;;
51495;SDS011;37572;52.094;4.870;2023-03-14T07:45:54;2.30;;;0.73;;
51495;SDS011;37572;52.094;4.870;2023-03-14T07:48:19;5.27;;;1.57;;
51495;SDS011;37572;52.094;4.870;2023-03-14T07:50:48;3.73;;;1.03;;
51495;SDS011;37572;52.094;4.870;2023-03-14T07:53:13;4.47;;;1.15;;
51495;SDS011;37572;52.094;4.870;2023-03-14T07:55:39;2.80;;;1.30;;
51495;SDS011;37572;52.094;4.870;2023-03-14T07:58:04;6.85;;;1.77;;
51495;SDS011;37572;52.094;4.870;2023-03-14T08:00:29;4.37;;;1.47;;
51495;SDS011;37572;52.094;4.870;2023-03-14T08:02:54;7.50;;;1.90;;
51495;SDS011;37572;52.094;4.870;2023-03-14T08:05:20;3.80;;;1.40;;
51495;SDS011;37572;52.094;4.870;2023-03-14T08:07:45;5.80;;;1.90;;
51495;SDS011;37572;52.094;4.870;2023-03-14T08:10:10;4.37;;;1.17;;
51495;SDS011;37572;52.094;4.870;2023-03-14T08:12:35;3.13;;;1.97;;
51495;SDS011;37572;52.094;4.870;2023-03-14T08:15:01;3.13;;;0.97;;
51495;SDS011;37572;52.094;4.870;2023-03-14T08:17:27;5.78;;;1.00;;
51495;SDS011;37572;52.094;4.870;2023-03-14T08:19:52;4.27;;;0.90;;
51495;SDS011;37572;52.094;4.870;2023-03-14T08:22:17;2.90;;;0.60;;
51495;SDS011;37572;52.094;4.870;2023-03-14T08:24:43;1.67;;;0.75;;
51495;SDS011;37572;52.094;4.870;2023-03-14T08:27:08;2.40;;;0.93;;
51495;SDS011;37572;52.094;4.870;2023-03-14T08:29:33;4.03;;;0.70;;
51495;SDS011;37572;52.094;4.870;2023-03-14T08:31:58;3.22;;;1.05;;
51495;SDS011;37572;52.094;4.870;2023-03-14T08:34:23;3.33;;;1.00;;
51495;SDS011;37572;52.094;4.870;2023-03-14T08:36:49;5.77;;;1.47;;
51495;SDS011;37572;52.094;4.870;2023-03-14T08:39:15;3.70;;;1.15;;
51495;SDS011;37572;52.094;4.870;2023-03-14T08:41:40;3.27;;;1.27;;
51495;SDS011;37572;52.094;4.870;2023-03-14T08:44:07;1.77;;;0.88;;
51495;SDS011;37572;52.094;4.870;2023-03-14T08:46:33;3.97;;;1.38;;
51495;SDS011;37572;52.094;4.870;2023-03-14T08:48:58;4.97;;;1.20;;
51495;SDS011;37572;52.094;4.870;2023-03-14T08:51:23;6.00;;;1.33;;
51495;SDS011;37572;52.094;4.870;2023-03-14T08:53:48;4.43;;;1.20;;
51495;SDS011;37572;52.094;4.870;2023-03-14T08:56:14;5.47;;;1.10;;
51495;SDS011;37572;52.094;4.870;2023-03-14T08:58:39;5.93;;;1.30;;
51495;SDS011;37572;52.094;4.870;2023-03-14T09:01:07;5.90;;;1.30;;
51495;SDS011;37572;52.094;4.870;2023-03-14T09:03:33;8.93;;;2.33;;
51495;SDS011;37572;52.094;4.870;2023-03-14T09:06:02;5.60;;;1.93;;
51495;SDS011;37572;52.094;4.870;2023-03-14T09:08:28;6.85;;;1.27;;
51495;SDS011;37572;52.094;4.870;2023-03-14T09:10:53;5.17;;;0.80;;
51495;SDS011;37572;52.094;4.870;2023-03-14T09:13:18;5.63;;;1.30;;
51495;SDS011;37572;52.094;4.870;2023-03-14T09:15:43;6.97;;;1.80;;
51495;SDS011;37572;52.094;4.870;2023-03-14T09:18:09;7.43;;;1.37;;
51495;SDS011;37572;52.094;4.870;2023-03-14T09:20:34;5.53;;;1.00;;
51495;SDS011;37572;52.094;4.870;2023-03-14T09:22:59;6.40;;;1.53;;
51495;SDS011;37572;52.094;4.870;2023-03-14T09:25:24;7.90;;;1.60;;
51495;SDS011;37572;52.094;4.870;2023-03-14T09:27:49;8.40;;;1.40;;
51495;SDS011;37572;52.094;4.870;2023-03-14T09:30:15;5.60;;;1.50;;
51495;SDS011;37572;52.094;4.870;2023-03-14T09:32:40;8.17;;;1.90;;
51495;SDS011;37572;52.094;4.870;2023-03-14T09:35:05;9.50;;;2.57;;
51495;SDS011;37572;52.094;4.870;2023-03-14T09:37:30;13.10;;;2.83;;
51495;SDS011;37572;52.094;4.870;2023-03-14T09:39:55;4.57;;;1.00;;
51495;SDS011;37572;52.094;4.870;2023-03-14T09:42:22;6.53;;;1.50;;
51495;SDS011;37572;52.094;4.870;2023-03-14T09:44:53;10.65;;;2.20;;
51495;SDS011;37572;52.094;4.870;2023-03-14T09:47:19;9.63;;;2.55;;
51495;SDS011;37572;52.094;4.870;2023-03-14T09:49:45;12.00;;;1.58;;
51495;SDS011;37572;52.094;4.870;2023-03-14T09:52:14;9.18;;;2.20;;
51495;SDS011;37572;52.094;4.870;2023-03-14T09:54:43;12.15;;;1.63;;
51495;SDS011;37572;52.094;4.870;2023-03-14T09:57:12;10.93;;;2.60;;
51495;SDS011;37572;52.094;4.870;2023-03-14T09:59:39;12.63;;;2.58;;
51495;SDS011;37572;52.094;4.870;2023-03-14T10:02:20;11.77;;;1.63;;
51495;SDS011;37572;52.094;4.870;2023-03-14T10:07:23;11.50;;;1.60;;
51495;SDS011;37572;52.094;4.870;2023-03-14T10:09:50;12.07;;;2.20;;
51495;SDS011;37572;52.094;4.870;2023-03-14T10:12:16;13.02;;;1.88;;
51495;SDS011;37572;52.094;4.870;2023-03-14T10:14:49;12.23;;;2.92;;
51495;SDS011;37572;52.094;4.870;2023-03-14T10:17:15;14.23;;;2.47;;
51495;SDS011;37572;52.094;4.870;2023-03-14T10:20:43;9.50;;;1.80;;
51495;SDS011;37572;52.094;4.870;2023-03-14T10:22:36;8.10;;;1.65;;
51495;SDS011;37572;52.094;4.870;2023-03-14T10:25:03;12.57;;;1.93;;
51495;SDS011;37572;52.094;4.870;2023-03-14T10:27:29;14.00;;;2.25;;
51495;SDS011;37572;52.094;4.870;2023-03-14T10:29:56;10.88;;;2.25;;
51495;SDS011;37572;52.094;4.870;2023-03-14T10:32:22;11.02;;;2.13;;
51495;SDS011;37572;52.094;4.870;2023-03-14T10:37:51;15.23;;;1.92;;
51495;SDS011;37572;52.094;4.870;2023-03-14T10:40:18;10.50;;;2.38;;
51495;SDS011;37572;52.094;4.870;2023-03-14T10:42:43;12.43;;;3.22;;
51495;SDS011;37572;52.094;4.870;2023-03-14T10:47:57;7.32;;;1.92;;
51495;SDS011;37572;52.094;4.870;2023-03-14T10:50:26;11.63;;;3.00;;
51495;SDS011;37572;52.094;4.870;2023-03-14T10:52:53;10.07;;;3.38;;
51495;SDS011;37572;52.094;4.870;2023-03-14T10:55:18;10.07;;;2.25;;
51495;SDS011;37572;52.094;4.870;2023-03-14T10:57:43;11.27;;;2.17;;
51495;SDS011;37572;52.094;4.870;2023-03-14T11:00:13;11.90;;;2.30;;
51495;SDS011;37572;52.094;4.870;2023-03-14T11:02:44;12.30;;;1.85;;
51495;SDS011;37572;52.094;4.870;2023-03-14T11:05:18;10.77;;;2.53;;
51495;SDS011;37572;52.094;4.870;2023-03-14T11:07:46;11.13;;;1.90;;
51495;SDS011;37572;52.094;4.870;2023-03-14T11:10:17;9.90;;;1.47;;
51495;SDS011;37572;52.094;4.870;2023-03-14T11:15:38;13.68;;;3.08;;
51495;SDS011;37572;52.094;4.870;2023-03-14T11:18:18;5.60;;;1.23;;
51495;SDS011;37572;52.094;4.870;2023-03-14T11:23:19;6.07;;;1.50;;
51495;SDS011;37572;52.094;4.870;2023-03-14T11:28:37;13.07;;;2.35;;
51495;SDS011;37572;52.094;4.870;2023-03-14T11:36:16;8.65;;;1.48;;
51495;SDS011;37572;52.094;4.870;2023-03-14T11:41:11;8.23;;;1.15;;
51495;SDS011;37572;52.094;4.870;2023-03-14T11:43:40;6.75;;;1.10;;
51495;SDS011;37572;52.094;4.870;2023-03-14T11:46:13;6.50;;;1.33;;
51495;SDS011;37572;52.094;4.870;2023-03-14T11:51:21;5.55;;;0.98;;
51495;SDS011;37572;52.094;4.870;2023-03-14T11:53:59;7.22;;;1.20;;
51495;SDS011;37572;52.094;4.870;2023-03-14T11:56:33;6.22;;;1.45;;
51495;SDS011;37572;52.094;4.870;2023-03-14T11:59:00;6.57;;;1.02;;
51495;SDS011;37572;52.094;4.870;2023-03-14T12:02:09;6.80;;;1.08;;
51495;SDS011;37572;52.094;4.870;2023-03-14T12:06:50;6.25;;;1.23;;
51495;SDS011;37572;52.094;4.870;2023-03-14T12:09:16;5.32;;;0.90;;
51495;SDS011;37572;52.094;4.870;2023-03-14T12:11:47;5.60;;;1.27;;
51495;SDS011;37572;52.094;4.870;2023-03-14T12:14:17;6.13;;;1.20;;
51495;SDS011;37572;52.094;4.870;2023-03-14T12:16:43;10.13;;;1.50;;
51495;SDS011;37572;52.094;4.870;2023-03-14T12:19:23;7.43;;;1.10;;
51495;SDS011;37572;52.094;4.870;2023-03-14T12:21:54;4.63;;;0.70;;
51495;SDS011;37572;52.094;4.870;2023-03-14T12:24:22;4.60;;;1.58;;
51495;SDS011;37572;52.094;4.870;2023-03-14T12:26:58;4.55;;;0.93;;
51495;SDS011;37572;52.094;4.870;2023-03-14T12:29:24;4.32;;;0.88;;
51495;SDS011;37572;52.094;4.870;2023-03-14T12:32:06;6.45;;;0.63;;
51495;SDS011;37572;52.094;4.870;2023-03-14T12:34:32;4.65;;;0.70;;
51495;SDS011;37572;52.094;4.870;2023-03-14T12:40:03;4.72;;;1.13;;
51495;SDS011;37572;52.094;4.870;2023-03-14T12:45:31;4.32;;;0.70;;
51495;SDS011;37572;52.094;4.870;2023-03-14T12:48:03;6.93;;;0.98;;
51495;SDS011;37572;52.094;4.870;2023-03-14T12:50:37;3.85;;;0.93;;
51495;SDS011;37572;52.094;4.870;2023-03-14T13:00:55;4.55;;;0.60;;
51495;SDS011;37572;52.094;4.870;2023-03-14T13:03:22;5.07;;;0.68;;
51495;SDS011;37572;52.094;4.870;2023-03-14T13:06:03;3.63;;;0.68;;
51495;SDS011;37572;52.094;4.870;2023-03-14T13:08:47;6.10;;;1.00;;
51495;SDS011;37572;52.094;4.870;2023-03-14T13:11:15;5.18;;;0.80;;
51495;SDS011;37572;52.094;4.870;2023-03-14T13:13:42;5.75;;;1.13;;
51495;SDS011;37572;52.094;4.870;2023-03-14T13:16:12;4.82;;;0.70;;
51495;SDS011;37572;52.094;4.870;2023-03-14T13:18:40;5.80;;;1.02;;
51495;SDS011;37572;52.094;4.870;2023-03-14T13:21:19;5.20;;;1.10;;
51495;SDS011;37572;52.094;4.870;2023-03-14T13:24:22;5.95;;;0.82;;
51495;SDS011;37572;52.094;4.870;2023-03-14T13:26:40;6.95;;;1.25;;
51495;SDS011;37572;52.094;4.870;2023-03-14T13:31:45;5.93;;;0.90;;
51495;SDS011;37572;52.094;4.870;2023-03-14T13:34:10;6.68;;;1.35;;
51495;SDS011;37572;52.094;4.870;2023-03-14T13:36:36;7.03;;;1.30;;
51495;SDS011;37572;52.094;4.870;2023-03-14T13:39:02;5.93;;;1.10;;
51495;SDS011;37572;52.094;4.870;2023-03-14T13:41:29;6.82;;;1.48;;
51495;SDS011;37572;52.094;4.870;2023-03-14T13:44:00;5.30;;;1.10;;
51495;SDS011;37572;52.094;4.870;2023-03-14T13:46:25;4.57;;;1.00;;
51495;SDS011;37572;52.094;4.870;2023-03-14T13:48:57;5.63;;;1.03;;
51495;SDS011;37572;52.094;4.870;2023-03-14T13:51:24;6.13;;;1.08;;
51495;SDS011;37572;52.094;4.870;2023-03-14T13:53:53;7.45;;;1.77;;
51495;SDS011;37572;52.094;4.870;2023-03-14T13:56:22;4.13;;;1.58;;
51495;SDS011;37572;52.094;4.870;2023-03-14T13:58:48;6.03;;;1.00;;
51495;SDS011;37572;52.094;4.870;2023-03-14T14:01:20;7.03;;;2.03;;
51495;SDS011;37572;52.094;4.870;2023-03-14T14:03:48;5.35;;;1.45;;
51495;SDS011;37572;52.094;4.870;2023-03-14T14:08:48;5.65;;;1.63;;
51495;SDS011;37572;52.094;4.870;2023-03-14T14:11:18;2.58;;;0.80;;
51495;SDS011;37572;52.094;4.870;2023-03-14T14:13:46;6.05;;;1.20;;
51495;SDS011;37572;52.094;4.870;2023-03-14T14:16:11;6.97;;;1.00;;
51495;SDS011;37572;52.094;4.870;2023-03-14T14:18:37;7.75;;;1.60;;
51495;SDS011;37572;52.094;4.870;2023-03-14T14:21:02;6.07;;;2.28;;
51495;SDS011;37572;52.094;4.870;2023-03-14T14:23:28;8.30;;;1.73;;
51495;SDS011;37572;52.094;4.870;2023-03-14T14:25:54;7.28;;;1.00;;
51495;SDS011;37572;52.094;4.870;2023-03-14T14:28:31;7.97;;;1.58;;
51495;SDS011;37572;52.094;4.870;2023-03-14T14:33:58;5.30;;;0.98;;
51495;SDS011;37572;52.094;4.870;2023-03-14T14:38:54;5.65;;;1.00;;
51495;SDS011;37572;52.094;4.870;2023-03-14T14:41:22;6.22;;;0.90;;
51495;SDS011;37572;52.094;4.870;2023-03-14T14:43:51;6.30;;;1.00;;
51495;SDS011;37572;52.094;4.870;2023-03-14T14:46:17;5.00;;;0.85;;
51495;SDS011;37572;52.094;4.870;2023-03-14T14:48:43;3.72;;;1.00;;
51495;SDS011;37572;52.094;4.870;2023-03-14T14:51:08;3.90;;;0.73;;
51495;SDS011;37572;52.094;4.870;2023-03-14T14:53:37;4.87;;;1.00;;
51495;SDS011;37572;52.094;4.870;2023-03-14T14:56:04;5.25;;;1.30;;
51495;SDS011;37572;52.094;4.870;2023-03-14T14:58:34;6.25;;;1.10;;
51495;SDS011;37572;52.094;4.870;2023-03-14T15:03:49;7.38;;;2.63;;
51495;SDS011;37572;52.094;4.870;2023-03-14T15:06:15;6.13;;;0.90;;
51495;SDS011;37572;52.094;4.870;2023-03-14T15:08:42;2.80;;;1.13;;
51495;SDS011;37572;52.094;4.870;2023-03-14T15:11:17;4.70;;;1.20;;
51495;SDS011;37572;52.094;4.870;2023-03-14T15:13:43;4.13;;;0.90;;
51495;SDS011;37572;52.094;4.870;2023-03-14T15:16:09;5.17;;;1.10;;
51495;SDS011;37572;52.094;4.870;2023-03-14T15:18:35;5.40;;;0.90;;
51495;SDS011;37572;52.094;4.870;2023-03-14T15:21:00;8.50;;;0.90;;
51495;SDS011;37572;52.094;4.870;2023-03-14T15:23:25;8.53;;;1.20;;
51495;SDS011;37572;52.094;4.870;2023-03-14T15:25:51;2.77;;;1.03;;
51495;SDS011;37572;52.094;4.870;2023-03-14T15:28:17;3.77;;;1.23;;
51495;SDS011;37572;52.094;4.870;2023-03-14T15:30:44;7.18;;;1.75;;
51495;SDS011;37572;52.094;4.870;2023-03-14T15:33:10;5.05;;;1.00;;
51495;SDS011;37572;52.094;4.870;2023-03-14T15:35:36;5.10;;;1.10;;
51495;SDS011;37572;52.094;4.870;2023-03-14T15:38:01;4.22;;;1.02;;
51495;SDS011;37572;52.094;4.870;2023-03-14T15:40:26;6.13;;;1.20;;
51495;SDS011;37572;52.094;4.870;2023-03-14T15:42:51;5.17;;;1.20;;